sensor_id;sensor_type;location;lat;lon;timestamp;temperature;humidity
2162;DHT22;1087;50.226;8.682;2023-04-25T00:01:17;12.40;99.90
2162;DHT22;1087;50.226;8.682;2023-04-25T00:03:44;12.40;99.90
2162;DHT22;1087;50.226;8.682;2023-04-25T00:06:09;12.30;99.90
2162;DHT22;1087;50.226;8.682;2023-04-25T00:08:35;12.30;99.90
2162;DHT22;1087;50.226;8.682;2023-04-25T00:11:01;12.10;99.90
2162;DHT22;1087;50.226;8.682;2023-04-25T00:13:26;12.00;99.90
2162;DHT22;1087;50.226;8.682;2023-04-25T00:15:52;11.80;99.90
2162;DHT22;1087;50.226;8.682;2023-04-25T00:18:25;12.00;99.90
2162;DHT22;1087;50.226;8.682;2023-04-25T00:20:54;12.10;99.90
2162;DHT22;1087;50.226;8.682;2023-04-25T00:23:20;12.10;99.90
2162;DHT22;1087;50.226;8.682;2023-04-25T00:25:46;12.00;99.90
2162;DHT22;1087;50.226;8.682;2023-04-25T00:28:12;12.00;99.90
2162;DHT22;1087;50.226;8.682;2023-04-25T00:30:39;12.10;99.90
2162;DHT22;1087;50.226;8.682;2023-04-25T00:33:05;12.20;99.90
2162;DHT22;1087;50.226;8.682;2023-04-25T00:35:30;12.30;99.90
2162;DHT22;1087;50.226;8.682;2023-04-25T00:37:56;12.20;99.90
2162;DHT22;1087;50.226;8.682;2023-04-25T00:40:22;12.20;99.90
2162;DHT22;1087;50.226;8.682;2023-04-25T00:42:47;12.20;99.90
2162;DHT22;1087;50.226;8.682;2023-04-25T00:45:14;12.20;99.90
2162;DHT22;1087;50.226;8.682;2023-04-25T00:47:41;12.20;99.90
2162;DHT22;1087;50.226;8.682;2023-04-25T00:50:07;12.10;99.90
2162;DHT22;1087;50.226;8.682;2023-04-25T00:52:33;12.10;99.90
2162;DHT22;1087;50.226;8.682;2023-04-25T00:54:59;12.20;99.90
2162;DHT22;1087;50.226;8.682;2023-04-25T00:57:25;12.20;99.90
2162;DHT22;1087;50.226;8.682;2023-04-25T00:59:51;12.20;99.90
2162;DHT22;1087;50.226;8.682;2023-04-25T01:02:18;12.20;99.90
2162;DHT22;1087;50.226;8.682;2023-04-25T01:04:44;12.20;99.90
2162;DHT22;1087;50.226;8.682;2023-04-25T01:07:10;12.20;99.90
2162;DHT22;1087;50.226;8.682;2023-04-25T01:09:36;12.20;99.90
2162;DHT22;1087;50.226;8.682;2023-04-25T01:12:02;12.20;99.90
2162;DHT22;1087;50.226;8.682;2023-04-25T01:14:28;12.20;99.90
2162;DHT22;1087;50.226;8.682;2023-04-25T01:16:54;12.10;99.90
2162;DHT22;1087;50.226;8.682;2023-04-25T01:19:20;12.10;99.90
2162;DHT22;1087;50.226;8.682;2023-04-25T01:21:46;11.90;99.90
2162;DHT22;1087;50.226;8.682;2023-04-25T01:24:12;11.90;99.90
2162;DHT22;1087;50.226;8.682;2023-04-25T01:26:38;12.00;99.90
2162;DHT22;1087;50.226;8.682;2023-04-25T01:29:07;12.00;99.90
2162;DHT22;1087;50.226;8.682;2023-04-25T01:31:33;12.10;99.90
2162;DHT22;1087;50.226;8.682;2023-04-25T01:33:59;12.10;99.90
2162;DHT22;1087;50.226;8.682;2023-04-25T01:36:25;12.10;99.90
2162;DHT22;1087;50.226;8.682;2023-04-25T01:38:52;12.10;99.90
2162;DHT22;1087;50.226;8.682;2023-04-25T01:41:18;12.10;99.90
2162;DHT22;1087;50.226;8.682;2023-04-25T01:44:04;12.10;99.90
2162;DHT22;1087;50.226;8.682;2023-04-25T01:46:29;12.00;99.90
2162;DHT22;1087;50.226;8.682;2023-04-25T01:48:55;12.00;99.90
2162;DHT22;1087;50.226;8.682;2023-04-25T01:51:21;11.90;99.90
2162;DHT22;1087;50.226;8.682;2023-04-25T01:53:47;11.80;99.90
2162;DHT22;1087;50.226;8.682;2023-04-25T01:56:12;11.80;99.90
2162;DHT22;1087;50.226;8.682;2023-04-25T01:58:38;11.80;99.90
2162;DHT22;1087;50.226;8.682;2023-04-25T02:01:03;11.70;99.90
2162;DHT22;1087;50.226;8.682;2023-04-25T02:03:30;11.80;99.90
2162;DHT22;1087;50.226;8.682;2023-04-25T02:05:56;11.90;99.90
2162;DHT22;1087;50.226;8.682;2023-04-25T02:08:22;11.80;99.90
2162;DHT22;1087;50.226;8.682;2023-04-25T02:10:47;11.90;99.90
2162;DHT22;1087;50.226;8.682;2023-04-25T02:13:13;12.00;99.90
2162;DHT22;1087;50.226;8.682;2023-04-25T02:15:38;11.90;99.90
2162;DHT22;1087;50.226;8.682;2023-04-25T02:18:04;11.90;99.90
2162;DHT22;1087;50.226;8.682;2023-04-25T02:20:32;11.90;99.90
2162;DHT22;1087;50.226;8.682;2023-04-25T02:22:58;11.90;99.90
2162;DHT22;1087;50.226;8.682;2023-04-25T02:25:23;12.00;99.90
2162;DHT22;1087;50.226;8.682;2023-04-25T02:27:49;11.90;99.90
2162;DHT22;1087;50.226;8.682;2023-04-25T02:30:15;11.90;99.90
2162;DHT22;1087;50.226;8.682;2023-04-25T02:32:41;11.90;99.90
2162;DHT22;1087;50.226;8.682;2023-04-25T02:35:07;11.80;99.90
2162;DHT22;1087;50.226;8.682;2023-04-25T02:37:34;11.90;99.90
2162;DHT22;1087;50.226;8.682;2023-04-25T02:39:59;11.90;99.90
2162;DHT22;1087;50.226;8.682;2023-04-25T02:42:26;11.90;99.90
2162;DHT22;1087;50.226;8.682;2023-04-25T02:44:52;12.00;99.90
2162;DHT22;1087;50.226;8.682;2023-04-25T02:47:17;12.00;99.90
2162;DHT22;1087;50.226;8.682;2023-04-25T02:49:43;12.00;99.90
2162;DHT22;1087;50.226;8.682;2023-04-25T02:52:08;11.60;99.90
2162;DHT22;1087;50.226;8.682;2023-04-25T02:54:34;11.60;99.90
2162;DHT22;1087;50.226;8.682;2023-04-25T02:56:59;11.60;99.90
2162;DHT22;1087;50.226;8.682;2023-04-25T02:59:26;11.60;99.90
2162;DHT22;1087;50.226;8.682;2023-04-25T03:01:51;11.30;99.90
2162;DHT22;1087;50.226;8.682;2023-04-25T03:04:17;11.10;99.90
2162;DHT22;1087;50.226;8.682;2023-04-25T03:06:44;11.10;99.90
2162;DHT22;1087;50.226;8.682;2023-04-25T03:09:10;11.20;99.90
2162;DHT22;1087;50.226;8.682;2023-04-25T03:11:38;11.20;99.90
2162;DHT22;1087;50.226;8.682;2023-04-25T03:14:03;11.10;99.90
2162;DHT22;1087;50.226;8.682;2023-04-25T03:16:29;11.20;99.90
2162;DHT22;1087;50.226;8.682;2023-04-25T03:18:55;11.20;99.90
2162;DHT22;1087;50.226;8.682;2023-04-25T03:21:20;11.20;99.90
2162;DHT22;1087;50.226;8.682;2023-04-25T03:23:46;11.20;99.90
2162;DHT22;1087;50.226;8.682;2023-04-25T03:26:11;11.30;99.90
2162;DHT22;1087;50.226;8.682;2023-04-25T03:28:37;11.20;99.90
2162;DHT22;1087;50.226;8.682;2023-04-25T03:31:02;11.20;99.90
2162;DHT22;1087;50.226;8.682;2023-04-25T03:33:28;11.30;99.90
2162;DHT22;1087;50.226;8.682;2023-04-25T03:35:53;11.10;99.90
2162;DHT22;1087;50.226;8.682;2023-04-25T03:38:19;11.00;99.90
2162;DHT22;1087;50.226;8.682;2023-04-25T03:40:44;11.00;99.90
2162;DHT22;1087;50.226;8.682;2023-04-25T03:43:10;11.00;99.90
2162;DHT22;1087;50.226;8.682;2023-04-25T03:45:36;11.10;99.90
2162;DHT22;1087;50.226;8.682;2023-04-25T03:48:02;11.10;99.90
2162;DHT22;1087;50.226;8.682;2023-04-25T03:50:27;11.00;99.90
2162;DHT22;1087;50.226;8.682;2023-04-25T03:52:53;11.10;99.90
2162;DHT22;1087;50.226;8.682;2023-04-25T03:55:18;11.00;99.90
2162;DHT22;1087;50.226;8.682;2023-04-25T03:57:44;11.00;99.90
2162;DHT22;1087;50.226;8.682;2023-04-25T04:00:10;11.00;99.90
2162;DHT22;1087;50.226;8.682;2023-04-25T04:02:35;11.10;99.90
2162;DHT22;1087;50.226;8.682;2023-04-25T04:05:03;11.00;99.90
2162;DHT22;1087;50.226;8.682;2023-04-25T04:07:29;10.70;99.90
2162;DHT22;1087;50.226;8.682;2023-04-25T04:09:55;10.60;99.90
2162;DHT22;1087;50.226;8.682;2023-04-25T04:12:20;10.70;99.90
2162;DHT22;1087;50.226;8.682;2023-04-25T04:14:46;10.80;99.90
2162;DHT22;1087;50.226;8.682;2023-04-25T04:17:11;10.90;99.90
2162;DHT22;1087;50.226;8.682;2023-04-25T04:19:37;11.00;99.90
2162;DHT22;1087;50.226;8.682;2023-04-25T04:22:02;11.00;99.90
2162;DHT22;1087;50.226;8.682;2023-04-25T04:24:28;10.80;99.90
2162;DHT22;1087;50.226;8.682;2023-04-25T04:26:53;10.70;99.90
2162;DHT22;1087;50.226;8.682;2023-04-25T04:29:19;10.60;99.90
2162;DHT22;1087;50.226;8.682;2023-04-25T04:31:50;10.50;99.90
2162;DHT22;1087;50.226;8.682;2023-04-25T04:34:16;10.60;99.90
2162;DHT22;1087;50.226;8.682;2023-04-25T04:36:44;10.40;99.90
2162;DHT22;1087;50.226;8.682;2023-04-25T04:39:11;10.50;99.90
2162;DHT22;1087;50.226;8.682;2023-04-25T04:41:37;10.30;99.90
2162;DHT22;1087;50.226;8.682;2023-04-25T04:44:03;10.30;99.90
2162;DHT22;1087;50.226;8.682;2023-04-25T04:46:28;10.30;99.90
2162;DHT22;1087;50.226;8.682;2023-04-25T04:48:54;10.20;99.90
2162;DHT22;1087;50.226;8.682;2023-04-25T04:51:21;10.20;99.90
2162;DHT22;1087;50.226;8.682;2023-04-25T04:53:47;10.20;99.90
2162;DHT22;1087;50.226;8.682;2023-04-25T04:56:12;10.30;99.90
2162;DHT22;1087;50.226;8.682;2023-04-25T04:58:38;10.40;99.90
2162;DHT22;1087;50.226;8.682;2023-04-25T05:01:03;10.40;99.90
2162;DHT22;1087;50.226;8.682;2023-04-25T05:03:29;10.50;99.90
2162;DHT22;1087;50.226;8.682;2023-04-25T05:05:54;10.40;99.90
2162;DHT22;1087;50.226;8.682;2023-04-25T05:08:20;10.50;99.90
2162;DHT22;1087;50.226;8.682;2023-04-25T05:10:46;10.50;99.90
2162;DHT22;1087;50.226;8.682;2023-04-25T05:13:11;10.60;99.90
2162;DHT22;1087;50.226;8.682;2023-04-25T05:15:37;10.70;99.90
2162;DHT22;1087;50.226;8.682;2023-04-25T05:18:02;10.70;99.90
2162;DHT22;1087;50.226;8.682;2023-04-25T05:20:28;10.70;99.90
2162;DHT22;1087;50.226;8.682;2023-04-25T05:22:53;10.70;99.90
2162;DHT22;1087;50.226;8.682;2023-04-25T05:25:19;10.50;99.90
2162;DHT22;1087;50.226;8.682;2023-04-25T05:27:44;10.50;99.90
2162;DHT22;1087;50.226;8.682;2023-04-25T05:30:10;10.20;99.90
2162;DHT22;1087;50.226;8.682;2023-04-25T05:32:36;10.40;99.90
2162;DHT22;1087;50.226;8.682;2023-04-25T05:35:02;10.40;99.90
2162;DHT22;1087;50.226;8.682;2023-04-25T05:37:28;10.50;99.90
2162;DHT22;1087;50.226;8.682;2023-04-25T05:39:55;10.50;99.90
2162;DHT22;1087;50.226;8.682;2023-04-25T05:42:21;10.50;99.90
2162;DHT22;1087;50.226;8.682;2023-04-25T05:44:46;10.50;99.90
2162;DHT22;1087;50.226;8.682;2023-04-25T05:47:12;10.50;99.90
2162;DHT22;1087;50.226;8.682;2023-04-25T05:49:37;10.50;99.90
2162;DHT22;1087;50.226;8.682;2023-04-25T05:52:03;10.40;99.90
2162;DHT22;1087;50.226;8.682;2023-04-25T05:54:28;10.40;99.90
2162;DHT22;1087;50.226;8.682;2023-04-25T05:56:55;10.30;99.90
2162;DHT22;1087;50.226;8.682;2023-04-25T05:59:21;10.20;99.90
2162;DHT22;1087;50.226;8.682;2023-04-25T06:01:46;10.30;99.90
2162;DHT22;1087;50.226;8.682;2023-04-25T06:04:12;10.30;99.90
2162;DHT22;1087;50.226;8.682;2023-04-25T06:06:37;10.40;99.90
2162;DHT22;1087;50.226;8.682;2023-04-25T06:09:03;10.30;99.90
2162;DHT22;1087;50.226;8.682;2023-04-25T06:11:28;10.40;99.90
2162;DHT22;1087;50.226;8.682;2023-04-25T06:13:55;10.40;99.90
2162;DHT22;1087;50.226;8.682;2023-04-25T06:16:20;10.40;99.90
2162;DHT22;1087;50.226;8.682;2023-04-25T06:18:46;10.50;99.90
2162;DHT22;1087;50.226;8.682;2023-04-25T06:21:11;10.50;99.90
2162;DHT22;1087;50.226;8.682;2023-04-25T06:23:37;10.40;99.90
2162;DHT22;1087;50.226;8.682;2023-04-25T06:26:02;10.60;99.90
2162;DHT22;1087;50.226;8.682;2023-04-25T06:28:28;10.20;99.90
2162;DHT22;1087;50.226;8.682;2023-04-25T06:30:54;10.20;99.90
2162;DHT22;1087;50.226;8.682;2023-04-25T06:33:19;10.20;99.90
2162;DHT22;1087;50.226;8.682;2023-04-25T06:35:46;10.40;99.90
2162;DHT22;1087;50.226;8.682;2023-04-25T06:38:12;10.50;99.90
2162;DHT22;1087;50.226;8.682;2023-04-25T06:40:37;10.60;99.90
2162;DHT22;1087;50.226;8.682;2023-04-25T06:43:03;10.60;99.90
2162;DHT22;1087;50.226;8.682;2023-04-25T06:45:29;10.60;99.90
2162;DHT22;1087;50.226;8.682;2023-04-25T06:47:54;10.60;99.90
2162;DHT22;1087;50.226;8.682;2023-04-25T06:50:20;10.70;99.90
2162;DHT22;1087;50.226;8.682;2023-04-25T06:52:45;10.70;99.90
2162;DHT22;1087;50.226;8.682;2023-04-25T06:55:11;10.80;99.90
2162;DHT22;1087;50.226;8.682;2023-04-25T06:57:36;10.90;99.90
2162;DHT22;1087;50.226;8.682;2023-04-25T07:00:03;10.70;99.90
2162;DHT22;1087;50.226;8.682;2023-04-25T07:02:30;10.80;99.90
2162;DHT22;1087;50.226;8.682;2023-04-25T07:04:56;10.80;99.90
2162;DHT22;1087;50.226;8.682;2023-04-25T07:07:25;10.80;99.90
2162;DHT22;1087;50.226;8.682;2023-04-25T07:09:50;10.90;99.90
2162;DHT22;1087;50.226;8.682;2023-04-25T07:12:16;10.90;99.90
2162;DHT22;1087;50.226;8.682;2023-04-25T07:14:41;10.90;99.90
2162;DHT22;1087;50.226;8.682;2023-04-25T07:17:07;10.80;99.90
2162;DHT22;1087;50.226;8.682;2023-04-25T07:19:33;10.80;99.90
2162;DHT22;1087;50.226;8.682;2023-04-25T07:21:58;10.90;99.90
2162;DHT22;1087;50.226;8.682;2023-04-25T07:24:24;10.80;99.90
2162;DHT22;1087;50.226;8.682;2023-04-25T07:26:49;10.90;99.90
2162;DHT22;1087;50.226;8.682;2023-04-25T07:29:15;11.10;99.90
2162;DHT22;1087;50.226;8.682;2023-04-25T07:31:40;11.40;99.90
2162;DHT22;1087;50.226;8.682;2023-04-25T07:34:07;11.60;99.90
2162;DHT22;1087;50.226;8.682;2023-04-25T07:36:32;11.70;99.90
2162;DHT22;1087;50.226;8.682;2023-04-25T07:38:58;11.70;99.90
2162;DHT22;1087;50.226;8.682;2023-04-25T07:41:23;11.60;99.90
2162;DHT22;1087;50.226;8.682;2023-04-25T07:43:49;11.60;99.90
2162;DHT22;1087;50.226;8.682;2023-04-25T07:46:15;11.50;99.90
2162;DHT22;1087;50.226;8.682;2023-04-25T07:48:40;11.60;99.90
2162;DHT22;1087;50.226;8.682;2023-04-25T07:51:05;11.50;99.90
2162;DHT22;1087;50.226;8.682;2023-04-25T07:53:32;11.50;99.90
2162;DHT22;1087;50.226;8.682;2023-04-25T07:56:00;11.50;99.90
2162;DHT22;1087;50.226;8.682;2023-04-25T07:58:25;11.50;99.90
2162;DHT22;1087;50.226;8.682;2023-04-25T08:00:51;11.50;99.90
2162;DHT22;1087;50.226;8.682;2023-04-25T08:03:16;11.60;99.90
2162;DHT22;1087;50.226;8.682;2023-04-25T08:05:42;11.40;99.90
2162;DHT22;1087;50.226;8.682;2023-04-25T08:08:08;11.50;99.90
2162;DHT22;1087;50.226;8.682;2023-04-25T08:10:33;11.40;99.90
2162;DHT22;1087;50.226;8.682;2023-04-25T08:12:59;11.50;99.90
2162;DHT22;1087;50.226;8.682;2023-04-25T08:15:25;11.50;99.90
2162;DHT22;1087;50.226;8.682;2023-04-25T08:17:51;11.50;99.90
2162;DHT22;1087;50.226;8.682;2023-04-25T08:20:17;11.70;99.90
2162;DHT22;1087;50.226;8.682;2023-04-25T08:22:43;11.60;99.90
2162;DHT22;1087;50.226;8.682;2023-04-25T08:25:08;11.70;99.90
2162;DHT22;1087;50.226;8.682;2023-04-25T08:27:34;11.40;99.90
2162;DHT22;1087;50.226;8.682;2023-04-25T08:30:00;11.20;99.90
2162;DHT22;1087;50.226;8.682;2023-04-25T08:32:26;11.40;99.90
2162;DHT22;1087;50.226;8.682;2023-04-25T08:34:51;11.50;99.90
2162;DHT22;1087;50.226;8.682;2023-04-25T08:37:19;11.60;99.90
2162;DHT22;1087;50.226;8.682;2023-04-25T08:39:45;11.70;99.90
2162;DHT22;1087;50.226;8.682;2023-04-25T08:42:12;11.70;99.90
2162;DHT22;1087;50.226;8.682;2023-04-25T08:44:37;11.80;99.90
2162;DHT22;1087;50.226;8.682;2023-04-25T08:47:04;11.80;99.90
2162;DHT22;1087;50.226;8.682;2023-04-25T08:49:33;12.00;99.90
2162;DHT22;1087;50.226;8.682;2023-04-25T08:52:04;11.90;99.90
2162;DHT22;1087;50.226;8.682;2023-04-25T08:54:32;12.00;99.90
2162;DHT22;1087;50.226;8.682;2023-04-25T08:57:01;12.10;99.90
2162;DHT22;1087;50.226;8.682;2023-04-25T08:59:30;12.10;99.90
2162;DHT22;1087;50.226;8.682;2023-04-25T09:01:57;12.20;99.90
2162;DHT22;1087;50.226;8.682;2023-04-25T09:04:22;12.30;99.90
2162;DHT22;1087;50.226;8.682;2023-04-25T09:06:48;12.30;99.90
2162;DHT22;1087;50.226;8.682;2023-04-25T09:09:13;12.20;99.90
2162;DHT22;1087;50.226;8.682;2023-04-25T09:11:39;12.20;99.90
2162;DHT22;1087;50.226;8.682;2023-04-25T09:14:20;12.20;99.90
2162;DHT22;1087;50.226;8.682;2023-04-25T09:16:59;12.20;99.90
2162;DHT22;1087;50.226;8.682;2023-04-25T09:19:27;12.00;99.90
2162;DHT22;1087;50.226;8.682;2023-04-25T09:21:58;12.10;99.90
2162;DHT22;1087;50.226;8.682;2023-04-25T09:24:50;12.10;99.90
2162;DHT22;1087;50.226;8.682;2023-04-25T09:27:20;12.20;99.90
2162;DHT22;1087;50.226;8.682;2023-04-25T09:29:57;12.30;99.90
2162;DHT22;1087;50.226;8.682;2023-04-25T09:32:23;12.30;99.90
2162;DHT22;1087;50.226;8.682;2023-04-25T09:34:51;12.20;99.90
2162;DHT22;1087;50.226;8.682;2023-04-25T09:39:52;12.60;99.90
2162;DHT22;1087;50.226;8.682;2023-04-25T09:42:18;12.40;99.90
2162;DHT22;1087;50.226;8.682;2023-04-25T09:44:47;12.30;99.90
2162;DHT22;1087;50.226;8.682;2023-04-25T09:47:14;12.50;99.90
2162;DHT22;1087;50.226;8.682;2023-04-25T09:49:42;12.50;99.90
2162;DHT22;1087;50.226;8.682;2023-04-25T09:52:08;12.60;99.90
2162;DHT22;1087;50.226;8.682;2023-04-25T09:54:34;12.70;99.90
2162;DHT22;1087;50.226;8.682;2023-04-25T09:57:08;12.70;99.90
2162;DHT22;1087;50.226;8.682;2023-04-25T09:59:39;12.90;99.90
2162;DHT22;1087;50.226;8.682;2023-04-25T10:02:07;12.90;99.90
2162;DHT22;1087;50.226;8.682;2023-04-25T10:04:34;12.80;99.90
2162;DHT22;1087;50.226;8.682;2023-04-25T10:07:02;12.70;99.90
2162;DHT22;1087;50.226;8.682;2023-04-25T10:09:29;12.70;99.90
2162;DHT22;1087;50.226;8.682;2023-04-25T10:11:59;12.60;99.90
2162;DHT22;1087;50.226;8.682;2023-04-25T10:14:26;12.30;99.90
2162;DHT22;1087;50.226;8.682;2023-04-25T10:16:52;12.40;99.90
2162;DHT22;1087;50.226;8.682;2023-04-25T10:19:19;12.40;99.90
2162;DHT22;1087;50.226;8.682;2023-04-25T10:24:26;12.20;99.90
2162;DHT22;1087;50.226;8.682;2023-04-25T10:26:52;12.20;99.90
2162;DHT22;1087;50.226;8.682;2023-04-25T10:29:26;11.90;99.90
2162;DHT22;1087;50.226;8.682;2023-04-25T10:31:51;12.00;99.90
2162;DHT22;1087;50.226;8.682;2023-04-25T10:34:17;12.20;99.90
2162;DHT22;1087;50.226;8.682;2023-04-25T10:36:49;12.30;99.90
2162;DHT22;1087;50.226;8.682;2023-04-25T10:39:24;12.40;99.90
2162;DHT22;1087;50.226;8.682;2023-04-25T10:41:57;12.30;99.90
2162;DHT22;1087;50.226;8.682;2023-04-25T10:44:26;12.40;99.90
2162;DHT22;1087;50.226;8.682;2023-04-25T10:46:52;12.50;99.90
2162;DHT22;1087;50.226;8.682;2023-04-25T10:49:42;12.50;99.90
2162;DHT22;1087;50.226;8.682;2023-04-25T10:52:25;12.40;99.90
2162;DHT22;1087;50.226;8.682;2023-04-25T10:54:52;12.40;99.90
2162;DHT22;1087;50.226;8.682;2023-04-25T10:57:43;12.50;99.90
2162;DHT22;1087;50.226;8.682;2023-04-25T11:00:14;12.40;99.90
2162;DHT22;1087;50.226;8.682;2023-04-25T11:02:57;12.50;99.90
2162;DHT22;1087;50.226;8.682;2023-04-25T11:05:33;12.50;99.90
2162;DHT22;1087;50.226;8.682;2023-04-25T11:07:59;12.40;99.90
2162;DHT22;1087;50.226;8.682;2023-04-25T11:10:29;12.40;99.90
2162;DHT22;1087;50.226;8.682;2023-04-25T11:12:56;12.30;99.90
2162;DHT22;1087;50.226;8.682;2023-04-25T11:15:21;12.10;99.90
2162;DHT22;1087;50.226;8.682;2023-04-25T11:17:47;12.10;99.90
2162;DHT22;1087;50.226;8.682;2023-04-25T11:20:13;12.20;99.90
2162;DHT22;1087;50.226;8.682;2023-04-25T11:22:41;12.20;99.90
2162;DHT22;1087;50.226;8.682;2023-04-25T11:25:10;12.20;99.90
2162;DHT22;1087;50.226;8.682;2023-04-25T11:27:52;12.40;99.90
2162;DHT22;1087;50.226;8.682;2023-04-25T11:30:19;12.50;99.90
2162;DHT22;1087;50.226;8.682;2023-04-25T11:32:45;12.60;99.90
2162;DHT22;1087;50.226;8.682;2023-04-25T11:35:11;12.50;99.90
2162;DHT22;1087;50.226;8.682;2023-04-25T11:37:39;12.50;99.90
2162;DHT22;1087;50.226;8.682;2023-04-25T11:40:05;12.60;99.90
2162;DHT22;1087;50.226;8.682;2023-04-25T11:42:37;12.60;99.90
2162;DHT22;1087;50.226;8.682;2023-04-25T11:45:03;12.50;99.90
2162;DHT22;1087;50.226;8.682;2023-04-25T11:47:33;12.40;99.90
2162;DHT22;1087;50.226;8.682;2023-04-25T11:50:00;12.40;99.90
2162;DHT22;1087;50.226;8.682;2023-04-25T11:52:56;12.60;99.90
2162;DHT22;1087;50.226;8.682;2023-04-25T11:55:21;12.40;99.90
2162;DHT22;1087;50.226;8.682;2023-04-25T11:57:49;12.40;99.90
2162;DHT22;1087;50.226;8.682;2023-04-25T12:00:17;12.30;99.90
2162;DHT22;1087;50.226;8.682;2023-04-25T12:02:44;12.30;99.90
2162;DHT22;1087;50.226;8.682;2023-04-25T12:05:12;12.30;99.90
2162;DHT22;1087;50.226;8.682;2023-04-25T12:07:37;12.30;99.90
2162;DHT22;1087;50.226;8.682;2023-04-25T12:10:07;12.10;99.90
2162;DHT22;1087;50.226;8.682;2023-04-25T12:12:34;12.10;99.90
2162;DHT22;1087;50.226;8.682;2023-04-25T12:17:40;11.90;99.90
2162;DHT22;1087;50.226;8.682;2023-04-25T12:20:10;11.90;99.90
2162;DHT22;1087;50.226;8.682;2023-04-25T12:22:37;12.00;99.90
2162;DHT22;1087;50.226;8.682;2023-04-25T12:25:04;12.00;99.90
2162;DHT22;1087;50.226;8.682;2023-04-25T12:27:31;12.00;99.90
2162;DHT22;1087;50.226;8.682;2023-04-25T12:29:57;11.90;99.90
2162;DHT22;1087;50.226;8.682;2023-04-25T12:32:23;11.90;99.90
2162;DHT22;1087;50.226;8.682;2023-04-25T12:34:49;12.10;99.90
2162;DHT22;1087;50.226;8.682;2023-04-25T12:37:15;12.00;99.90
2162;DHT22;1087;50.226;8.682;2023-04-25T12:39:41;12.00;99.90
2162;DHT22;1087;50.226;8.682;2023-04-25T12:42:06;12.20;99.90
2162;DHT22;1087;50.226;8.682;2023-04-25T12:44:33;12.40;99.90
2162;DHT22;1087;50.226;8.682;2023-04-25T12:46:59;12.50;99.90
2162;DHT22;1087;50.226;8.682;2023-04-25T12:49:25;12.60;99.90
2162;DHT22;1087;50.226;8.682;2023-04-25T12:51:51;12.80;99.90
2162;DHT22;1087;50.226;8.682;2023-04-25T12:54:17;12.70;99.90
2162;DHT22;1087;50.226;8.682;2023-04-25T12:56:43;12.60;99.90
2162;DHT22;1087;50.226;8.682;2023-04-25T12:59:08;12.70;99.90
2162;DHT22;1087;50.226;8.682;2023-04-25T13:01:34;12.80;99.90
2162;DHT22;1087;50.226;8.682;2023-04-25T13:04:00;12.80;99.90
2162;DHT22;1087;50.226;8.682;2023-04-25T13:06:26;12.60;99.90
2162;DHT22;1087;50.226;8.682;2023-04-25T13:08:52;12.60;99.90
2162;DHT22;1087;50.226;8.682;2023-04-25T13:11:17;12.50;99.90
2162;DHT22;1087;50.226;8.682;2023-04-25T13:13:44;12.60;99.90
2162;DHT22;1087;50.226;8.682;2023-04-25T13:16:09;12.50;99.90
2162;DHT22;1087;50.226;8.682;2023-04-25T13:18:35;12.40;99.90
2162;DHT22;1087;50.226;8.682;2023-04-25T13:21:01;12.40;99.90
2162;DHT22;1087;50.226;8.682;2023-04-25T13:23:28;12.40;99.90
2162;DHT22;1087;50.226;8.682;2023-04-25T13:25:54;12.30;99.90
2162;DHT22;1087;50.226;8.682;2023-04-25T13:28:20;12.30;99.90
2162;DHT22;1087;50.226;8.682;2023-04-25T13:30:46;12.40;99.90
2162;DHT22;1087;50.226;8.682;2023-04-25T13:33:13;12.40;99.90
2162;DHT22;1087;50.226;8.682;2023-04-25T13:35:39;12.40;99.90
2162;DHT22;1087;50.226;8.682;2023-04-25T13:38:04;12.50;99.90
2162;DHT22;1087;50.226;8.682;2023-04-25T13:40:30;12.60;99.90
2162;DHT22;1087;50.226;8.682;2023-04-25T13:42:56;12.60;99.90
2162;DHT22;1087;50.226;8.682;2023-04-25T13:45:22;12.70;99.90
2162;DHT22;1087;50.226;8.682;2023-04-25T13:47:47;12.80;99.90
2162;DHT22;1087;50.226;8.682;2023-04-25T13:50:13;12.70;99.90
2162;DHT22;1087;50.226;8.682;2023-04-25T13:52:39;12.70;99.90
2162;DHT22;1087;50.226;8.682;2023-04-25T13:55:06;12.70;99.90
2162;DHT22;1087;50.226;8.682;2023-04-25T13:57:33;12.80;99.90
2162;DHT22;1087;50.226;8.682;2023-04-25T13:59:58;12.70;99.90
2162;DHT22;1087;50.226;8.682;2023-04-25T14:02:24;12.70;99.90
2162;DHT22;1087;50.226;8.682;2023-04-25T14:04:50;12.70;99.90
2162;DHT22;1087;50.226;8.682;2023-04-25T14:07:15;12.70;99.90
2162;DHT22;1087;50.226;8.682;2023-04-25T14:09:41;12.70;99.90
2162;DHT22;1087;50.226;8.682;2023-04-25T14:12:07;12.70;99.90
2162;DHT22;1087;50.226;8.682;2023-04-25T14:14:33;12.80;99.90
2162;DHT22;1087;50.226;8.682;2023-04-25T14:16:58;12.70;99.90
2162;DHT22;1087;50.226;8.682;2023-04-25T14:19:24;12.80;99.90
2162;DHT22;1087;50.226;8.682;2023-04-25T14:21:50;12.80;99.90
2162;DHT22;1087;50.226;8.682;2023-04-25T14:24:16;12.90;99.90
2162;DHT22;1087;50.226;8.682;2023-04-25T14:26:41;12.90;99.90
2162;DHT22;1087;50.226;8.682;2023-04-25T14:29:09;12.70;99.90
2162;DHT22;1087;50.226;8.682;2023-04-25T14:31:37;12.80;99.90
2162;DHT22;1087;50.226;8.682;2023-04-25T14:34:04;12.90;99.90
2162;DHT22;1087;50.226;8.682;2023-04-25T14:36:31;12.80;99.90
2162;DHT22;1087;50.226;8.682;2023-04-25T14:38:57;12.80;99.90
2162;DHT22;1087;50.226;8.682;2023-04-25T14:41:24;12.80;99.90
2162;DHT22;1087;50.226;8.682;2023-04-25T14:43:50;12.90;99.90
2162;DHT22;1087;50.226;8.682;2023-04-25T14:46:16;12.90;99.90
2162;DHT22;1087;50.226;8.682;2023-04-25T14:48:42;12.90;99.90
2162;DHT22;1087;50.226;8.682;2023-04-25T14:51:07;12.90;99.90
2162;DHT22;1087;50.226;8.682;2023-04-25T14:53:33;12.80;99.90
2162;DHT22;1087;50.226;8.682;2023-04-25T14:55:58;12.60;99.90
2162;DHT22;1087;50.226;8.682;2023-04-25T14:58:24;12.40;99.90
2162;DHT22;1087;50.226;8.682;2023-04-25T15:00:49;12.40;99.90
2162;DHT22;1087;50.226;8.682;2023-04-25T15:03:16;12.30;99.90
2162;DHT22;1087;50.226;8.682;2023-04-25T15:05:42;12.20;99.90
2162;DHT22;1087;50.226;8.682;2023-04-25T15:08:08;12.30;99.90
2162;DHT22;1087;50.226;8.682;2023-04-25T15:10:33;12.30;99.90
2162;DHT22;1087;50.226;8.682;2023-04-25T15:12:59;12.40;99.90
2162;DHT22;1087;50.226;8.682;2023-04-25T15:15:24;12.50;99.90
2162;DHT22;1087;50.226;8.682;2023-04-25T15:17:50;12.50;99.90
2162;DHT22;1087;50.226;8.682;2023-04-25T15:20:17;12.40;99.90
2162;DHT22;1087;50.226;8.682;2023-04-25T15:22:43;12.50;99.90
2162;DHT22;1087;50.226;8.682;2023-04-25T15:25:10;12.60;99.90
2162;DHT22;1087;50.226;8.682;2023-04-25T15:27:36;12.50;99.90
2162;DHT22;1087;50.226;8.682;2023-04-25T15:30:09;12.60;99.90
2162;DHT22;1087;50.226;8.682;2023-04-25T15:32:41;12.50;99.90
2162;DHT22;1087;50.226;8.682;2023-04-25T15:35:07;12.50;99.90
2162;DHT22;1087;50.226;8.682;2023-04-25T15:37:33;12.30;99.90
2162;DHT22;1087;50.226;8.682;2023-04-25T15:42:41;12.50;99.90
2162;DHT22;1087;50.226;8.682;2023-04-25T15:45:09;12.70;99.90
2162;DHT22;1087;50.226;8.682;2023-04-25T15:47:35;12.70;99.90
2162;DHT22;1087;50.226;8.682;2023-04-25T15:50:03;12.80;99.90
2162;DHT22;1087;50.226;8.682;2023-04-25T15:52:31;13.00;99.90
2162;DHT22;1087;50.226;8.682;2023-04-25T15:54:56;13.10;99.90
2162;DHT22;1087;50.226;8.682;2023-04-25T15:57:22;13.00;99.90
2162;DHT22;1087;50.226;8.682;2023-04-25T15:59:48;13.10;99.90
2162;DHT22;1087;50.226;8.682;2023-04-25T16:02:13;13.20;99.90
2162;DHT22;1087;50.226;8.682;2023-04-25T16:04:39;13.20;99.90
2162;DHT22;1087;50.226;8.682;2023-04-25T16:07:05;13.20;99.90
2162;DHT22;1087;50.226;8.682;2023-04-25T16:09:31;13.20;99.90